createdAt,value
2022-10-06T03:01:44.335Z,8.80
2022-10-06T03:04:12.086Z,8.80
2022-10-06T03:06:39.218Z,8.80
2022-10-06T03:09:09.807Z,8.90
2022-10-06T03:11:42.602Z,8.90
2022-10-06T03:14:09.932Z,8.90
2022-10-06T03:16:42.602Z,8.90
2022-10-06T03:19:10.662Z,8.90
2022-10-06T03:21:41.967Z,8.90
2022-10-06T03:24:09.684Z,8.80
2022-10-06T03:26:43.713Z,8.90
2022-10-06T03:29:12.109Z,8.90
2022-10-06T03:31:40.312Z,8.90
2022-10-06T03:34:07.522Z,8.90
2022-10-06T03:36:35.312Z,8.90
2022-10-06T03:39:04.664Z,8.90
2022-10-06T03:41:34.969Z,8.90
2022-10-06T03:44:02.935Z,8.90
2022-10-06T03:46:32.599Z,8.90
2022-10-06T03:49:01.328Z,8.90
2022-10-06T03:51:34.485Z,8.90
2022-10-06T03:54:01.817Z,8.90
2022-10-06T03:56:30.427Z,8.90
2022-10-06T03:58:59.769Z,9.00
2022-10-06T04:01:46.473Z,8.90
2022-10-06T04:04:14.308Z,8.70
2022-10-06T04:06:44.066Z,8.50
2022-10-06T04:09:15.503Z,8.50
2022-10-06T04:11:44.417Z,8.50
2022-10-06T04:14:15.150Z,8.50
2022-10-06T04:16:48.089Z,8.50
2022-10-06T04:19:17.138Z,8.50
2022-10-06T04:21:46.109Z,8.40
2022-10-06T04:24:13.307Z,8.50
2022-10-06T04:26:45.131Z,8.50
2022-10-06T04:29:12.878Z,8.50
2022-10-06T04:31:42.475Z,8.50
2022-10-06T04:34:13.340Z,8.50
2022-10-06T04:36:42.532Z,8.50
2022-10-06T04:39:11.717Z,8.60
2022-10-06T04:41:41.172Z,8.60
2022-10-06T04:44:08.904Z,8.70
2022-10-06T04:46:44.782Z,8.60
2022-10-06T04:49:19.048Z,8.50
2022-10-06T04:51:50.403Z,8.50
2022-10-06T04:54:18.923Z,8.40
2022-10-06T04:56:46.463Z,8.40
2022-10-06T04:59:13.685Z,8.40
2022-10-06T05:01:40.865Z,8.40
2022-10-06T05:04:08.169Z,8.40
2022-10-06T05:06:38.578Z,8.40
2022-10-06T05:09:08.307Z,8.40
2022-10-06T05:11:35.801Z,8.50
2022-10-06T05:14:02.989Z,8.50
2022-10-06T05:16:31.399Z,8.50
2022-10-06T05:18:59.451Z,8.50
2022-10-06T05:21:29.645Z,8.60
2022-10-06T05:23:56.962Z,8.60
2022-10-06T05:26:27.795Z,8.60
2022-10-06T05:28:55.577Z,8.50
2022-10-06T05:31:26.745Z,8.60
2022-10-06T05:33:54.764Z,8.60
2022-10-06T05:36:24.847Z,8.70
2022-10-06T05:38:52.101Z,8.70
2022-10-06T05:41:30.460Z,8.80
2022-10-06T05:43:58.349Z,8.80
2022-10-06T05:46:33.033Z,8.80
2022-10-06T05:49:03.198Z,8.90
2022-10-06T05:51:32.480Z,9.00
2022-10-06T05:54:00.617Z,9.00
2022-10-06T05:56:30.028Z,9.10
2022-10-06T05:58:58.509Z,9.20
2022-10-06T06:01:31.313Z,9.20
2022-10-06T06:04:01.202Z,9.20
2022-10-06T06:06:31.524Z,9.30
2022-10-06T06:09:06.773Z,9.40
2022-10-06T06:11:36.113Z,9.40
2022-10-06T06:14:06.110Z,9.40
2022-10-06T06:16:34.592Z,9.40
2022-10-06T06:19:02.473Z,9.30
2022-10-06T06:21:30.073Z,9.30
2022-10-06T06:23:57.624Z,9.40
2022-10-06T06:26:25.750Z,9.50
2022-10-06T06:28:54.592Z,9.60
2022-10-06T06:31:27.979Z,9.70
2022-10-06T06:33:56.641Z,9.80
2022-10-06T06:36:52.061Z,9.90
2022-10-06T06:39:20.010Z,10.10
2022-10-06T06:41:47.264Z,10.40
2022-10-06T06:44:15.088Z,11.00
2022-10-06T06:46:44.863Z,11.80
2022-10-06T06:49:12.308Z,12.50
2022-10-06T06:51:42.855Z,13.30
2022-10-06T06:54:11.636Z,14.00
2022-10-06T06:56:39.141Z,14.50
2022-10-06T06:59:08.918Z,15.00
2022-10-06T07:01:36.736Z,15.50
2022-10-06T07:04:04.638Z,16.00
2022-10-06T07:06:32.611Z,16.50
2022-10-06T07:09:00.813Z,17.00
2022-10-06T07:11:30.720Z,17.40
2022-10-06T07:14:01.280Z,17.70
2022-10-06T07:16:49.213Z,17.80
2022-10-06T07:19:36.564Z,17.60
2022-10-06T07:22:43.490Z,17.30
2022-10-06T07:25:26.755Z,17.00
2022-10-06T07:27:54.876Z,16.80
2022-10-06T07:30:25.766Z,16.70
2022-10-06T07:32:53.560Z,16.50
2022-10-06T07:35:22.988Z,16.40
2022-10-06T07:37:51.488Z,16.40
2022-10-06T07:40:19.071Z,16.50
2022-10-06T07:42:50.010Z,16.50
2022-10-06T07:45:36.911Z,16.50
2022-10-06T07:48:05.923Z,16.50
2022-10-06T07:50:33.394Z,16.50
2022-10-06T07:53:07.653Z,16.50
2022-10-06T07:55:45.313Z,16.30
2022-10-06T07:58:19.409Z,16.00
2022-10-06T08:00:48.727Z,16.00
2022-10-06T08:03:18.053Z,16.00
2022-10-06T08:05:56.513Z,16.40
2022-10-06T08:08:24.058Z,16.70
2022-10-06T08:10:55.781Z,16.70
2022-10-06T08:13:23.599Z,16.60
2022-10-06T08:15:51.831Z,16.60
2022-10-06T08:18:44.402Z,16.90
2022-10-06T08:21:15.551Z,17.40
2022-10-06T08:23:43.991Z,17.90
2022-10-06T08:26:12.127Z,18.40
2022-10-06T08:28:40.100Z,19.00
2022-10-06T08:31:11.549Z,19.40
2022-10-06T08:33:39.981Z,19.40
2022-10-06T08:36:09.621Z,19.60
2022-10-06T08:38:37.869Z,19.60
2022-10-06T08:41:27.388Z,19.70
2022-10-06T08:44:20.871Z,19.80
2022-10-06T08:47:05.330Z,19.60
2022-10-06T08:49:39.685Z,19.50
2022-10-06T08:52:34.378Z,19.50
2022-10-06T08:55:27.890Z,19.40
2022-10-06T08:58:05.777Z,19.20
2022-10-06T09:00:33.724Z,19.40
2022-10-06T09:03:02.197Z,19.40
2022-10-06T09:05:32.061Z,19.30
2022-10-06T09:08:05.045Z,19.30
2022-10-06T09:11:00.975Z,19.10
2022-10-06T09:13:39.324Z,19.10
2022-10-06T09:16:10.244Z,18.90
2022-10-06T09:19:08.788Z,19.00
2022-10-06T09:21:52.360Z,19.10
2022-10-06T09:24:38.724Z,19.30
2022-10-06T09:27:23.297Z,19.30
2022-10-06T09:29:51.695Z,19.40
2022-10-06T09:32:20.787Z,19.50
2022-10-06T09:34:47.915Z,19.60
2022-10-06T09:37:15.442Z,19.60
2022-10-06T09:39:51.032Z,19.60
2022-10-06T09:42:22.644Z,19.60
2022-10-06T09:45:06.647Z,19.70
2022-10-06T09:47:35.283Z,19.80
2022-10-06T09:50:03.539Z,19.80
2022-10-06T09:52:30.774Z,19.70
2022-10-06T09:55:10.128Z,19.70
2022-10-06T09:57:37.397Z,19.60
2022-10-06T10:00:26.344Z,19.60
2022-10-06T10:02:59.928Z,19.60
2022-10-06T10:05:33.078Z,19.70
2022-10-06T10:08:09.140Z,19.70
2022-10-06T10:10:37.409Z,19.80
2022-10-06T10:13:25.346Z,19.80
2022-10-06T10:16:03.537Z,19.80
2022-10-06T10:18:32.040Z,19.80
2022-10-06T10:21:10.444Z,19.80
2022-10-06T10:23:43.190Z,19.80
2022-10-06T10:26:26.873Z,19.90
2022-10-06T10:29:00.450Z,19.90
2022-10-06T10:32:05.517Z,20.00
2022-10-06T10:34:50.417Z,20.10
2022-10-06T10:37:24.228Z,20.10
2022-10-06T10:39:56.053Z,20.10
2022-10-06T10:42:51.450Z,20.10
2022-10-06T10:45:24.984Z,20.20
2022-10-06T10:47:53.236Z,20.20
2022-10-06T10:50:35.105Z,20.30
2022-10-06T10:55:48.132Z,20.20
2022-10-06T10:58:23.936Z,20.20
2022-10-06T11:00:58.040Z,20.20
2022-10-06T11:03:25.357Z,20.30
2022-10-06T11:06:32.965Z,20.40
2022-10-06T11:09:18.757Z,20.40
2022-10-06T11:11:54.870Z,20.50
2022-10-06T11:14:30.919Z,20.40
2022-10-06T11:17:23.247Z,20.60
2022-10-06T11:19:53.380Z,20.60
2022-10-06T11:22:29.857Z,20.60
2022-10-06T11:24:57.696Z,20.40
2022-10-06T11:27:33.665Z,20.10
2022-10-06T11:30:02.895Z,19.80
2022-10-06T11:32:53.905Z,19.70
2022-10-06T11:35:24.049Z,19.80
2022-10-06T11:38:21.698Z,19.90
2022-10-06T11:41:10.303Z,20.00
2022-10-06T11:43:57.979Z,19.80
2022-10-06T11:46:45.149Z,19.90
2022-10-06T11:49:30.728Z,19.90
2022-10-06T11:52:18.509Z,20.00
2022-10-06T11:54:56.282Z,20.20
2022-10-06T11:57:29.389Z,20.10
2022-10-06T12:00:17.895Z,20.00
2022-10-06T12:02:46.287Z,20.40
2022-10-06T12:05:45.885Z,20.50
2022-10-06T12:08:01.203Z,20.50
2022-10-06T12:10:28.318Z,20.60
2022-10-06T12:13:41.243Z,20.70
2022-10-06T12:17:06.095Z,20.80
2022-10-06T12:19:22.490Z,20.80
2022-10-06T12:22:07.440Z,20.50
2022-10-06T12:25:05.228Z,20.40
2022-10-06T12:27:56.724Z,20.40
2022-10-06T12:30:47.252Z,20.40
2022-10-06T12:33:19.374Z,20.30
2022-10-06T12:35:47.536Z,20.10
2022-10-06T12:38:43.088Z,20.10
2022-10-06T12:41:14.217Z,20.10
2022-10-06T12:43:54.512Z,20.00
2022-10-06T12:46:27.211Z,19.80
2022-10-06T12:49:04.404Z,19.70
2022-10-06T12:51:43.197Z,19.50
2022-10-06T12:54:25.127Z,19.50
2022-10-06T12:56:58.965Z,19.40
2022-10-06T12:59:29.453Z,19.30
2022-10-06T13:02:00.077Z,19.30
2022-10-06T13:04:49.296Z,19.40
2022-10-06T13:07:26.307Z,19.50
2022-10-06T13:09:55.722Z,19.50
2022-10-06T13:12:27.879Z,19.60
2022-10-06T13:15:17.993Z,19.70
2022-10-06T13:17:54.864Z,19.70
2022-10-06T13:20:46.168Z,19.70
2022-10-06T13:23:37.640Z,19.80
2022-10-06T13:26:18.096Z,19.80
2022-10-06T13:28:51.017Z,19.80
2022-10-06T13:31:28.877Z,19.80
2022-10-06T13:34:13.624Z,20.00
2022-10-06T13:36:43.685Z,20.00
2022-10-06T13:39:22.053Z,20.10
2022-10-06T13:42:03.282Z,20.20
2022-10-06T13:44:40.066Z,20.30
2022-10-06T13:47:18.566Z,20.30
2022-10-06T13:50:06.339Z,20.20
2022-10-06T13:52:43.709Z,20.20
2022-10-06T13:55:18.546Z,20.30
2022-10-06T13:57:46.957Z,20.30
2022-10-06T14:00:27.814Z,20.40
2022-10-06T14:03:16.455Z,20.40
2022-10-06T14:05:44.861Z,20.50
2022-10-06T14:08:11.952Z,20.50
2022-10-06T14:10:47.540Z,20.40
2022-10-06T14:13:19.772Z,20.40
2022-10-06T14:15:53.346Z,20.20
2022-10-06T14:18:40.009Z,20.10
2022-10-06T14:21:29.606Z,19.70
2022-10-06T14:23:57.696Z,19.40
2022-10-06T14:26:37.425Z,19.00
2022-10-06T14:29:04.705Z,19.00
2022-10-06T14:31:33.994Z,19.00
2022-10-06T14:34:02.578Z,19.10
2022-10-06T14:36:35.680Z,19.40
2022-10-06T14:39:07.056Z,19.50
2022-10-06T14:41:35.847Z,19.70
2022-10-06T14:44:11.225Z,19.80
2022-10-06T14:46:40.186Z,19.70
2022-10-06T14:49:09.077Z,19.70
2022-10-06T14:51:37.546Z,19.60
2022-10-06T14:54:06.135Z,19.50
2022-10-06T14:56:35.047Z,19.30
2022-10-06T14:59:05.927Z,19.20
2022-10-06T15:01:35.684Z,19.10
2022-10-06T15:04:09.254Z,19.00
2022-10-06T15:06:55.039Z,18.80
2022-10-06T15:09:23.805Z,18.80
2022-10-06T15:11:52.007Z,18.80
2022-10-06T15:14:19.248Z,18.70
2022-10-06T15:16:46.542Z,18.70
2022-10-06T15:19:13.935Z,18.80
2022-10-06T15:21:45.335Z,18.80
2022-10-06T15:24:15.570Z,18.70
2022-10-06T15:27:02.715Z,18.80
2022-10-06T15:29:30.497Z,18.80
2022-10-06T15:31:58.727Z,18.70
2022-10-06T15:34:27.072Z,18.60
2022-10-06T15:36:55.626Z,18.50
2022-10-06T15:39:30.979Z,18.50
2022-10-06T15:41:58.695Z,18.40
2022-10-06T15:44:26.267Z,18.50
2022-10-06T15:46:55.588Z,18.50
2022-10-06T15:49:29.631Z,18.50
2022-10-06T15:51:59.702Z,18.40
2022-10-06T15:54:37.775Z,18.40
2022-10-06T15:57:08.565Z,18.30
2022-10-06T15:59:36.682Z,18.30
2022-10-06T16:02:22.421Z,18.20
2022-10-06T16:05:14.148Z,18.20
2022-10-06T16:07:41.290Z,18.20
2022-10-06T16:10:09.010Z,18.20
2022-10-06T16:12:36.142Z,18.20
2022-10-06T16:15:03.481Z,18.10
2022-10-06T16:17:30.608Z,18.10
2022-10-06T16:19:57.748Z,18.00
2022-10-06T16:22:24.881Z,18.00
2022-10-06T16:24:52.036Z,17.90
2022-10-06T16:27:19.269Z,17.90
2022-10-06T16:29:46.512Z,17.80
2022-10-06T16:32:13.821Z,17.80
2022-10-06T16:34:40.928Z,17.80
2022-10-06T16:37:08.135Z,17.70
2022-10-06T16:39:35.308Z,17.70
2022-10-06T16:42:02.640Z,17.70
2022-10-06T16:44:29.753Z,17.70
2022-10-06T16:46:57.009Z,17.60
2022-10-06T16:49:24.569Z,17.60
2022-10-06T16:51:51.841Z,17.50
2022-10-06T16:54:19.125Z,17.40
2022-10-06T16:56:48.539Z,17.40
2022-10-06T16:59:20.170Z,17.40
2022-10-06T17:01:47.833Z,17.40
2022-10-06T17:04:22.546Z,17.50
2022-10-06T17:06:55.305Z,17.50
2022-10-06T17:09:27.546Z,17.30
2022-10-06T17:11:57.323Z,17.30
2022-10-06T17:14:25.615Z,17.30
2022-10-06T17:16:54.472Z,17.20
2022-10-06T17:19:25.048Z,17.20
2022-10-06T17:21:58.213Z,17.20
2022-10-06T17:24:28.188Z,17.20
2022-10-06T17:26:56.772Z,17.30
2022-10-06T17:29:24.105Z,17.30
2022-10-06T17:32:01.642Z,17.30
2022-10-06T17:34:32.382Z,17.40
2022-10-06T17:37:01.525Z,17.20
2022-10-06T17:39:28.832Z,17.20
2022-10-06T17:41:56.529Z,17.10
2022-10-06T17:44:26.999Z,17.10
2022-10-06T17:46:56.900Z,17.10
2022-10-06T17:49:25.089Z,17.10
2022-10-06T17:51:54.155Z,17.00
2022-10-06T17:54:23.602Z,17.00
2022-10-06T17:56:54.830Z,16.90
2022-10-06T17:59:30.818Z,17.00
2022-10-06T18:02:01.053Z,17.00
2022-10-06T18:04:28.889Z,17.00
2022-10-06T18:06:56.917Z,17.10
2022-10-06T18:09:24.575Z,17.10
2022-10-06T18:11:56.562Z,17.10
2022-10-06T18:14:30.166Z,17.10
2022-10-06T18:17:00.617Z,16.90
2022-10-06T18:19:30.992Z,16.90
2022-10-06T18:22:10.453Z,16.80
2022-10-06T18:24:38.983Z,16.70
2022-10-06T18:27:07.979Z,16.60
2022-10-06T18:29:37.573Z,16.60
2022-10-06T18:37:40.441Z,16.50
2022-10-06T18:40:09.675Z,16.50
2022-10-06T18:42:37.567Z,16.50
2022-10-06T18:48:10.221Z,16.30
2022-10-06T18:50:37.418Z,16.20
2022-10-06T18:53:04.652Z,16.10
2022-10-06T18:55:32.579Z,15.90
2022-10-06T18:57:59.883Z,15.90
2022-10-06T19:00:27.281Z,15.90
2022-10-06T19:02:56.670Z,15.80
2022-10-06T19:05:24.302Z,15.70
2022-10-06T19:07:53.683Z,15.70
2022-10-06T19:10:21.162Z,15.70
2022-10-06T19:12:48.495Z,15.60
2022-10-06T19:15:20.284Z,15.60
2022-10-06T19:17:49.031Z,15.60
2022-10-06T19:20:16.653Z,15.50
2022-10-06T19:22:43.853Z,15.50
2022-10-06T19:25:11.435Z,15.40
2022-10-06T19:27:38.735Z,15.40
2022-10-06T19:30:06.302Z,15.40
2022-10-06T19:32:33.569Z,15.40
2022-10-06T19:35:00.769Z,15.40
2022-10-06T19:37:29.807Z,15.30
2022-10-06T19:39:56.991Z,15.30
2022-10-06T19:42:42.909Z,15.20
2022-10-06T19:45:11.749Z,15.00
2022-10-06T19:47:39.210Z,15.00
2022-10-06T19:50:11.698Z,15.00
2022-10-06T19:52:41.280Z,14.90
2022-10-06T19:55:08.773Z,14.70
2022-10-06T19:57:36.186Z,14.70
2022-10-06T20:00:04.827Z,14.50
2022-10-06T20:02:31.958Z,14.50
2022-10-06T20:04:59.154Z,14.40
2022-10-06T20:07:27.879Z,14.10
2022-10-06T20:09:55.565Z,13.90
2022-10-06T20:12:25.197Z,13.70
2022-10-06T20:14:53.906Z,13.60
2022-10-06T20:17:23.148Z,13.50
2022-10-06T20:19:55.130Z,13.40
2022-10-06T20:22:25.253Z,13.30
2022-10-06T20:24:52.416Z,13.20
2022-10-06T20:27:20.188Z,13.20
2022-10-06T20:29:47.339Z,13.20
2022-10-06T20:32:14.495Z,13.30
2022-10-06T20:34:41.958Z,13.40
2022-10-06T20:37:09.184Z,13.40
2022-10-06T20:39:55.157Z,13.40
2022-10-06T20:42:22.360Z,13.40
2022-10-06T20:44:50.096Z,13.40
2022-10-06T20:47:17.353Z,13.40
2022-10-06T20:49:44.679Z,13.40
2022-10-06T20:52:14.778Z,13.30
2022-10-06T20:54:42.458Z,13.20
2022-10-06T20:57:09.858Z,13.20
2022-10-06T20:59:37.813Z,13.10
